Austin, Pennsylvania
Current Conditions -  °F | °C
As of 2:53 AM on Friday 24 Oct 2014 (Local Time) from KBFD Reporting Station
Clear Clear  
Wind Chill: 36°   Ceiling: Unl
Heat Index: 41°   Visibility: 10mi
Dew Point: 36°   Wind: 8mph
Humidity: 82%   Direction: 310°NW
Pressure: 30"   Gusts: NA
Location:  41.63°N, 78.09°W
Report Text: KBFD 240653Z AUTO 31007KT 10SM CLR 05/02 A3000 RMK AO2 SLP162 T00500022
Loading
Personal Weather Stations






























Interactive Weather Map
Tropical Storm Tracking
New forecast layout! Learn more

10-Day Weather Forecast

Advertisements
Track Severe Weather on mobile